Bassetts Creek, Alabama
Current Conditions -  °F | °C
As of 8:56 PM on Monday 20 Oct 2014 (Local Time) from KMOB Reporting Station
Haze Haze  
Wind Chill: 57°   Ceiling: Unl
Heat Index: 57°   Visibility: 6mi
Dew Point: 53°   Wind: 3mph
Humidity: 87%   Direction: 360°N
Pressure: 30.02"   Gusts: NA
Location:  31.3942°N, 88.065°W
Report Text: KMOB 210156Z 36003KT 6SM BR SCT200 14/12 A3002 RMK AO2 SLP164 T01390117
Loading
Personal Weather Stations






























Interactive Weather Map
Tropical Storm Tracking
New forecast layout! Learn more

10-Day Weather Forecast

Advertisements
Track Severe Weather on mobile